Fascination — C6FM9 — position and weather

sailwx.info

Track history (hours):
 
Tides and Currents Weather Stations Pressure Air Temp Water Temp Dewpoint Dewpoint Depression Visibility Wind Speed Wind Dir Waves Ship Positions

Fascination

Operator: Carnival Cruise Lines

Last reported at 2016-Jun-25 10:20 UTC. Time now 2016-Jun-25 16:02 UTC.
Position N 18°01' W 063°03'.

Type: Ship. MMSI: 309682000.

Date/timePositionNaut miles runAvg speedWind from/ knotsBaromVisibWave heightAir tempDewpointWater temp
2016-Jun-25 10:20N 18°01' W 063°03'6 6.4
2016-Jun-25 09:26N 18°01' W 063°09'8 9.6
2016-Jun-25 08:33N 18°02' W 063°18'9 9.3
2016-Jun-25 07:33N 18°06' W 063°27'9 9.2
2016-Jun-25 06:33N 18°09' W 063°36'7 6.9
2016-Jun-25 05:33N 18°03' W 063°40'17 8.5
2016-Jun-25 03:32N 17°57' W 063°23'10 9.6
2016-Jun-25 02:31N 17°51' W 063°15'10 9.4
2016-Jun-25 01:30N 17°44' W 063°08'74 4.4
2016-Jun-24 08:33N 16°40' W 062°29'  
2016-Jun-20 23:17N 18°05' W 064°45'810.3
2016-Jun-20 22:32N 18°09' W 064°52'9 0.7
2016-Jun-20 10:08N 18°17' W 064°56'7 0.2
2016-Jun-19 04:16N 18°11' W 065°00'1516.2
2016-Jun-19 03:22N 18°08' W 064°45'6515.9
2016-Jun-18 23:18N 18°02' W 063°38'1215.8
2016-Jun-18 22:32N 18°02' W 063°25'1715.7
2016-Jun-18 21:28N 18°00' W 063°07'4 0.4
2016-Jun-18 10:21N 18°00' W 063°03'5 6.1
2016-Jun-18 09:34N 18°01' W 063°08'8 8.5
2016-Jun-18 08:34N 18°02' W 063°17'9 8.6
2016-Jun-18 07:33N 18°05' W 063°25'9 9.0
2016-Jun-18 06:32N 18°08' W 063°34'6 5.9
2016-Jun-18 05:33N 18°06' W 063°40'16 7.7
2016-Jun-18 03:30N 17°58' W 063°25'9 9.9
2016-Jun-18 02:32N 17°52' W 063°17'10 9.7
2016-Jun-18 01:28N 17°45' W 063°09'  
Track history (hours):
 
Tides and Currents Weather Stations Pressure Air Temp Water Temp Dewpoint Dewpoint Depression Visibility Wind Speed Wind Dir Waves Ship Positions

Fascination

Operator: Carnival Cruise Lines

Last reported at 2016-Jun-25 10:20 UTC. Time now 2016-Jun-25 16:02 UTC.
Position N 18°01' W 063°03'.

Type: Ship. MMSI: 309682000.

Date/timePositionNaut miles runAvg speedWind from/ knotsBaromVisibWave heightAir tempDewpointWater temp
2016-Jun-25 10:20N 18°01' W 063°03'6 6.4
2016-Jun-25 09:26N 18°01' W 063°09'8 9.6
2016-Jun-25 08:33N 18°02' W 063°18'9 9.3
2016-Jun-25 07:33N 18°06' W 063°27'9 9.2
2016-Jun-25 06:33N 18°09' W 063°36'7 6.9
2016-Jun-25 05:33N 18°03' W 063°40'17 8.5
2016-Jun-25 03:32N 17°57' W 063°23'10 9.6
2016-Jun-25 02:31N 17°51' W 063°15'10 9.4
2016-Jun-25 01:30N 17°44' W 063°08'74 4.4
2016-Jun-24 08:33N 16°40' W 062°29'  
2016-Jun-20 23:17N 18°05' W 064°45'810.3
2016-Jun-20 22:32N 18°09' W 064°52'9 0.7
2016-Jun-20 10:08N 18°17' W 064°56'7 0.2
2016-Jun-19 04:16N 18°11' W 065°00'1516.2
2016-Jun-19 03:22N 18°08' W 064°45'6515.9
2016-Jun-18 23:18N 18°02' W 063°38'1215.8
2016-Jun-18 22:32N 18°02' W 063°25'1715.7
2016-Jun-18 21:28N 18°00' W 063°07'4 0.4
2016-Jun-18 10:21N 18°00' W 063°03'5 6.1
2016-Jun-18 09:34N 18°01' W 063°08'8 8.5
2016-Jun-18 08:34N 18°02' W 063°17'9 8.6
2016-Jun-18 07:33N 18°05' W 063°25'9 9.0
2016-Jun-18 06:32N 18°08' W 063°34'6 5.9
2016-Jun-18 05:33N 18°06' W 063°40'16 7.7
2016-Jun-18 03:30N 17°58' W 063°25'9 9.9
2016-Jun-18 02:32N 17°52' W 063°17'10 9.7
2016-Jun-18 01:28N 17°45' W 063°09'  

Dump ship's entire track history